createdAt,value
2023-02-25T00:01:29.566Z,91.46
2023-02-25T00:06:36.310Z,91.73
2023-02-25T00:11:44.483Z,91.76
2023-02-25T00:16:56.308Z,92.08
2023-02-25T00:22:03.137Z,92.03
2023-02-25T00:27:11.429Z,92.21
2023-02-25T00:32:17.934Z,92.29
2023-02-25T00:37:24.836Z,92.29
2023-02-25T00:42:32.888Z,92.45
2023-02-25T00:47:40.473Z,92.53
2023-02-25T00:52:48.454Z,92.84
2023-02-25T00:57:57.642Z,92.89
2023-02-25T01:03:03.810Z,92.79
2023-02-25T01:08:11.935Z,92.85
2023-02-25T01:13:20.010Z,92.67
2023-02-25T01:18:26.862Z,92.21
2023-02-25T01:23:33.991Z,92.31
2023-02-25T01:28:45.597Z,92.32
2023-02-25T01:33:51.932Z,92.28
2023-02-25T01:38:59.222Z,92.90
2023-02-25T01:44:15.234Z,92.66
2023-02-25T01:49:29.321Z,92.99
2023-02-25T01:54:37.052Z,93.06
2023-02-25T01:59:46.388Z,92.78
2023-02-25T02:04:55.271Z,92.72
2023-02-25T02:10:02.619Z,92.96
2023-02-25T02:15:14.429Z,92.81
2023-02-25T02:20:26.599Z,92.51
2023-02-25T02:26:25.834Z,92.22
2023-02-25T02:31:56.885Z,92.23
2023-02-25T02:37:23.590Z,92.24
2023-02-25T02:42:43.112Z,92.24
2023-02-25T02:47:59.874Z,92.23
2023-02-25T02:53:12.712Z,92.26
2023-02-25T02:58:28.113Z,92.55
2023-02-25T03:03:42.112Z,92.67
2023-02-25T03:08:56.413Z,92.80
2023-02-25T03:14:03.716Z,92.95
2023-02-25T03:19:17.909Z,92.97
2023-02-25T03:24:29.346Z,93.03
2023-02-25T03:29:36.276Z,92.82
2023-02-25T03:34:48.767Z,92.92
2023-02-25T03:40:00.428Z,92.77
2023-02-25T03:45:13.398Z,92.56
2023-02-25T03:50:25.853Z,92.41
2023-02-25T03:55:37.784Z,92.40
2023-02-25T04:00:47.441Z,91.89
2023-02-25T04:05:55.492Z,91.91
2023-02-25T04:11:02.392Z,91.51
2023-02-25T04:16:10.020Z,91.15
2023-02-25T04:21:30.412Z,90.92
2023-02-25T04:26:37.565Z,91.28
2023-02-25T04:31:44.207Z,91.30
2023-02-25T04:36:53.479Z,91.64
2023-02-25T04:42:00.458Z,91.82
2023-02-25T04:47:07.275Z,91.92
2023-02-25T04:52:16.752Z,91.90
2023-02-25T04:57:23.418Z,92.07
2023-02-25T05:02:30.539Z,92.19
2023-02-25T05:07:39.449Z,91.79
2023-02-25T05:12:46.430Z,92.13
2023-02-25T05:17:53.245Z,92.23
2023-02-25T05:23:02.066Z,92.45
2023-02-25T05:28:08.660Z,92.44
2023-02-25T05:33:15.184Z,92.25
2023-02-25T05:38:23.472Z,92.69
2023-02-25T05:43:30.200Z,92.42
2023-02-25T05:48:36.547Z,92.76
2023-02-25T05:53:45.750Z,92.17
2023-02-25T05:58:52.386Z,92.00
2023-02-25T06:03:59.952Z,91.82
2023-02-25T06:09:09.716Z,92.31
2023-02-25T06:14:18.117Z,92.63
2023-02-25T06:19:26.582Z,92.58
2023-02-25T06:24:37.179Z,92.60
2023-02-25T06:29:43.706Z,92.77
2023-02-25T06:34:50.282Z,92.57
2023-02-25T06:39:58.249Z,92.39
2023-02-25T06:45:04.803Z,92.62
2023-02-25T06:50:13.786Z,92.38
2023-02-25T06:55:21.818Z,92.80
2023-02-25T07:00:28.427Z,92.65
2023-02-25T07:05:34.897Z,92.91
2023-02-25T07:10:42.987Z,92.57
2023-02-25T07:15:49.936Z,92.90
2023-02-25T07:20:56.868Z,92.97
2023-02-25T07:26:08.111Z,93.26
2023-02-25T07:31:17.933Z,93.12
2023-02-25T07:36:27.508Z,93.03
2023-02-25T07:41:35.583Z,92.76
2023-02-25T07:46:42.765Z,92.77
2023-02-25T07:51:49.622Z,92.91
2023-02-25T07:56:57.847Z,93.10
2023-02-25T08:02:04.303Z,93.32
2023-02-25T08:07:10.956Z,92.54
2023-02-25T08:12:18.682Z,92.91
2023-02-25T08:17:25.360Z,93.14
2023-02-25T08:22:31.947Z,93.02
2023-02-25T08:27:40.269Z,92.84
2023-02-25T08:32:48.457Z,92.81
2023-02-25T08:37:54.974Z,92.68
2023-02-25T08:43:02.954Z,92.82
2023-02-25T08:48:10.131Z,91.81
2023-02-25T08:53:16.769Z,92.11
2023-02-25T08:58:24.551Z,92.71
2023-02-25T09:03:31.002Z,92.68
2023-02-25T09:08:37.327Z,92.74
2023-02-25T09:13:46.316Z,93.55
2023-02-25T09:18:52.912Z,93.47
2023-02-25T09:24:00.129Z,92.92
2023-02-25T09:29:09.738Z,93.11
2023-02-25T09:34:16.271Z,93.23
2023-02-25T09:39:22.988Z,93.49
2023-02-25T09:44:36.178Z,93.53
2023-02-25T09:49:48.461Z,93.20
2023-02-25T09:54:59.531Z,93.31
2023-02-25T10:00:18.806Z,93.57
2023-02-25T10:05:34.156Z,93.04
2023-02-25T10:10:51.221Z,92.64
2023-02-25T10:16:15.789Z,90.99
2023-02-25T10:21:37.825Z,89.92
2023-02-25T10:26:50.479Z,89.10
2023-02-25T10:32:02.253Z,89.93
2023-02-25T10:37:19.011Z,90.57
2023-02-25T10:42:26.527Z,91.27
2023-02-25T10:48:26.379Z,91.39
2023-02-25T10:53:34.725Z,91.71
2023-02-25T10:58:47.492Z,92.28
2023-02-25T11:04:04.363Z,92.57
2023-02-25T11:09:35.831Z,92.85
2023-02-25T11:14:43.001Z,92.82
2023-02-25T11:19:59.989Z,92.51
2023-02-25T11:25:17.490Z,92.56
2023-02-25T11:30:33.437Z,92.02
2023-02-25T11:35:42.383Z,91.53
2023-02-25T11:40:49.018Z,89.75
2023-02-25T11:46:02.242Z,90.13
2023-02-25T11:51:24.767Z,89.67
2023-02-25T11:56:37.125Z,89.75
2023-02-25T12:02:05.438Z,90.34
2023-02-25T12:08:12.312Z,90.47
2023-02-25T12:14:15.272Z,90.84
2023-02-25T12:20:20.717Z,90.89
2023-02-25T12:25:40.281Z,91.03
2023-02-25T12:31:37.831Z,90.09
2023-02-25T12:37:06.153Z,90.59
2023-02-25T12:42:35.775Z,89.85
2023-02-25T12:48:02.580Z,89.68
2023-02-25T12:53:30.017Z,89.39
2023-02-25T12:58:57.573Z,89.88
2023-02-25T13:04:33.499Z,90.13
2023-02-25T13:10:23.346Z,90.45
2023-02-25T13:15:40.893Z,90.95
2023-02-25T13:21:10.685Z,90.65
2023-02-25T13:27:09.798Z,90.86
2023-02-25T13:32:34.385Z,91.01
2023-02-25T13:37:55.291Z,90.86
2023-02-25T13:43:26.056Z,90.60
2023-02-25T13:49:05.720Z,90.81
2023-02-25T13:55:06.367Z,90.36
2023-02-25T14:01:02.616Z,89.79
2023-02-25T14:06:30.262Z,89.71
2023-02-25T14:11:57.740Z,89.80
2023-02-25T14:17:35.184Z,89.81
2023-02-25T14:22:51.299Z,90.62
2023-02-25T14:28:13.492Z,90.64
2023-02-25T14:33:55.399Z,90.58
2023-02-25T14:39:40.157Z,90.15
2023-02-25T14:44:58.885Z,90.67
2023-02-25T14:50:16.699Z,90.23
2023-02-25T14:56:08.949Z,90.00
2023-02-25T15:01:48.189Z,89.83
2023-02-25T15:07:15.503Z,90.24
2023-02-25T15:12:44.706Z,90.52
2023-02-25T15:18:46.220Z,90.48
2023-02-25T15:23:55.927Z,90.40
2023-02-25T15:29:05.942Z,90.12
2023-02-25T15:34:39.665Z,89.82
2023-02-25T15:39:56.645Z,90.08
2023-02-25T15:45:46.326Z,90.32
2023-02-25T15:51:00.792Z,90.42
2023-02-25T15:56:46.459Z,90.26
2023-02-25T16:01:57.085Z,90.20
2023-02-25T16:07:11.150Z,89.82
2023-02-25T16:12:21.022Z,89.45
2023-02-25T16:17:36.306Z,90.20
2023-02-25T16:22:54.070Z,90.35
2023-02-25T16:28:12.767Z,90.46
2023-02-25T16:33:33.129Z,91.05
2023-02-25T16:38:50.112Z,91.33
2023-02-25T16:44:02.006Z,91.63
2023-02-25T16:49:23.617Z,91.97
2023-02-25T16:54:37.130Z,91.26
2023-02-25T16:59:47.187Z,90.70
2023-02-25T17:04:58.360Z,90.67
2023-02-25T17:10:16.123Z,90.55
2023-02-25T17:15:31.328Z,90.24
2023-02-25T17:20:42.795Z,90.34
2023-02-25T17:25:54.151Z,90.56
2023-02-25T17:31:11.938Z,90.95
2023-02-25T17:36:27.159Z,91.40
2023-02-25T17:41:37.700Z,91.26
2023-02-25T17:46:58.444Z,91.02
2023-02-25T17:52:19.456Z,90.27
2023-02-25T17:57:34.943Z,90.77
2023-02-25T18:02:47.640Z,90.77
2023-02-25T18:08:25.822Z,90.92
2023-02-25T18:13:39.212Z,90.36
2023-02-25T18:18:54.283Z,89.82
2023-02-25T18:24:11.027Z,89.63
2023-02-25T18:29:23.637Z,89.76
2023-02-25T18:34:35.067Z,89.41
2023-02-25T18:39:45.768Z,89.81
2023-02-25T18:44:55.712Z,89.58
2023-02-25T18:50:06.951Z,89.49
2023-02-25T18:55:29.086Z,89.30
2023-02-25T19:00:41.385Z,89.42
2023-02-25T19:05:53.463Z,89.21
2023-02-25T19:11:05.717Z,89.22
2023-02-25T19:16:15.397Z,89.32
2023-02-25T19:21:30.128Z,89.01
2023-02-25T19:26:42.751Z,89.03
2023-02-25T19:31:59.269Z,89.31
2023-02-25T19:37:21.814Z,89.26
2023-02-25T19:42:33.155Z,88.71
2023-02-25T19:47:45.828Z,88.82
2023-02-25T19:52:59.570Z,88.88
2023-02-25T19:58:13.318Z,88.29
2023-02-25T20:03:28.759Z,88.00
2023-02-25T20:08:42.980Z,87.94
2023-02-25T20:13:58.129Z,88.01
2023-02-25T20:19:14.291Z,87.84
2023-02-25T20:24:23.498Z,87.88
2023-02-25T20:29:35.809Z,88.05
2023-02-25T20:34:53.509Z,87.87
2023-02-25T20:40:05.008Z,87.86
2023-02-25T20:45:22.668Z,87.84
2023-02-25T20:50:36.464Z,87.77
2023-02-25T20:55:47.854Z,87.28
2023-02-25T21:01:05.178Z,87.03
2023-02-25T21:06:17.541Z,87.08
2023-02-25T21:11:28.409Z,87.05
2023-02-25T21:16:38.674Z,87.11
2023-02-25T21:21:47.614Z,86.99
2023-02-25T21:26:57.236Z,86.94
2023-02-25T21:32:06.966Z,87.00
2023-02-25T21:37:15.720Z,86.79
2023-02-25T21:42:23.448Z,86.03
2023-02-25T21:47:33.401Z,86.37
2023-02-25T21:52:41.143Z,85.48
2023-02-25T21:57:48.736Z,84.98
2023-02-25T22:02:58.560Z,85.38
2023-02-25T22:08:06.181Z,84.99
2023-02-25T22:13:13.328Z,84.84
2023-02-25T22:18:25.314Z,84.41
2023-02-25T22:23:33.742Z,84.31
2023-02-25T22:28:40.970Z,84.23
2023-02-25T22:33:49.500Z,84.88
2023-02-25T22:38:57.312Z,84.48
2023-02-25T22:44:05.462Z,84.74
2023-02-25T22:49:14.624Z,85.06
2023-02-25T22:54:23.020Z,84.88
2023-02-25T22:59:30.482Z,84.92
2023-02-25T23:04:38.978Z,85.15
2023-02-25T23:09:46.675Z,85.23
2023-02-25T23:14:53.891Z,85.52
2023-02-25T23:20:02.464Z,85.51
2023-02-25T23:25:11.634Z,85.40
2023-02-25T23:30:20.485Z,84.96
2023-02-25T23:35:29.739Z,84.54
2023-02-25T23:40:37.848Z,84.81
2023-02-25T23:45:46.915Z,84.83
2023-02-25T23:50:55.722Z,84.49
2023-02-25T23:56:07.879Z,84.22
